• Join FlightAware (Why Join?)
  • Login
  • US Flag 
02:53AM EST


 

Airport Tracker/Info


-or-


 

Live Flight TrackerFlight Track Log ✈ N818BL ✈ 07-Jul-2013 ✈ KHXD - KPDK

Flight Track Log - Related Links

Times and Time Zones

All times are in EDT time to prevent confusion due to time zone crossing. See the N818BL flight status page for this flight to view local times or setup timezone preferences in your user account.

Time Position Orientation Groundspeed Altitude Reporting Facility
EDT Latitude Longitude Course Direction KTS MPH feet Rate Location/Type
09:12AM 32.1403 -80.7556 320° Northwest 231 266 4,100  Level Jacksonville Center
09:13AM 32.1142 -80.8272 247° West 247 284 7,700 3,180 Climbing Jacksonville Center
09:14AM 32.1319 -80.8981 287° West 266 306 10,500 3,000 Climbing Jacksonville Center
09:15AM 32.1936 -80.9728 314° West 282 325 13,800 2,520 Climbing Jacksonville Center
09:16AM 32.2306 -81.0556 298° West 310 357 15,600 1,800 Climbing Jacksonville Center
09:17AM 32.5953 -81.0619 320° Northwest  Level FlightAware Approximate
09:17AM 32.2758 -81.1653 296° West 341 392 17,500  Level Jacksonville Center
09:18AM 32.3275 -81.2725 300° West 366 421 18,700 1,380 Climbing Jacksonville Center
09:19AM 32.3767 -81.3822 298° West 378 435 20,300 900 Climbing Jacksonville Center
09:21AM 32.4978 -81.6475 298° West 390 449 22,000 480 Climbing Atlanta Center
09:22AM 32.5481 -81.7669 297° West 395 455 22,000  Level Atlanta Center
09:23AM 32.6000 -81.8789 299° West 400 460 22,000  Level Atlanta Center
09:24AM 32.6522 -81.9936 298° West 400 460 22,000  Level Atlanta Center
09:25AM 32.7042 -82.1108 298° West 400 460 22,000  Level Atlanta Center
09:26AM 32.7558 -82.2233 299° West 400 460 22,000  Level Atlanta Center
09:27AM 32.8078 -82.3408 298° West 400 460 22,000  Level Atlanta Center
09:28AM 32.8594 -82.4536 299° West 400 460 22,000  Level Atlanta Center
09:29AM 32.9089 -82.5717 297° West 400 460 22,000  Level Atlanta Center
09:30AM 32.9622 -82.6869 299° West 400 460 22,000  Level Atlanta Center
09:31AM 33.0117 -82.8075 296° West 400 460 22,000 -120 Level Atlanta Center
09:32AM 33.0647 -82.9208 299° West 400 460 21,800 -1,020 Descending Atlanta Center
09:33AM 33.1161 -83.0417 297° West 405 466 20,000 -1,740 Descending Atlanta Center
09:34AM 33.1650 -83.1553 297° West 397 457 18,400 -1,620 Descending Atlanta Center
09:35AM 33.2136 -83.2617 299° West 380 437 16,800 -1,680 Descending Atlanta Center
09:36AM 33.2581 -83.3706 296° West 367 422 15,100 -1,800 Descending Atlanta Center
09:37AM 33.3108 -83.4844 299° West 361 415 13,200 -1,800 Descending Atlanta Center
09:38AM 33.3508 -83.5861 295° West 349 402 11,500 -1,140 Descending Atlanta Center
09:39AM 33.3972 -83.6731 303° West 333 383 11,000 -300 Descending Atlanta Center
09:40AM 33.4683 -83.7325 325° Northwest 301 346 10,900 -600 Descending Atlanta Center
09:41AM 33.5436 -83.7822 331° Northwest 310 357 9,900 -1,380 Descending Atlanta Center
09:42AM 33.6269 -83.7994 350° North 294 338 8,200 -1,620 Descending Atlanta Center
09:43AM 33.7125 -83.8042 357° North 303 349 6,700 -1,500 Descending Atlanta Center
09:44AM 33.7897 -83.8139 354° North 287 330 5,200 -1,380 Descending Atlanta Center
09:45AM 33.8525 -83.8661 325° Northwest 269 310 4,000 -600 Descending Atlanta Center
09:46AM 33.9069 -83.9061 329° Northwest 248 285 4,000  Level Atlanta Center
09:47AM 33.9403 -83.9586 307° West 209 241 4,000  Level Atlanta Center
09:49AM 33.9833 -84.0333 305° West 194 223 4,000 -240 Level Atlanta TRACON
09:50AM 33.9833 -84.0833 270° West 192 221 3,500 -540 Descending Atlanta TRACON
09:51AM 34.0000 -84.1500 287° West 199 229 3,000 -300 Descending Atlanta TRACON
09:52AM 34.0167 -84.2167 287° West 176 203 3,000  Level Atlanta TRACON
09:53AM 33.9833 -84.2500 220° Southwest 172 198 3,000 -300 Level Atlanta TRACON
09:54AM 33.9500 -84.2667 203° Southwest 142 163 2,400 -660 Descending Atlanta TRACON
09:55AM 33.9167 -84.2833 203° Southwest 123 142 1,700 -720 Descending Atlanta TRACON
09:57AM 33.8756 -84.3020 220° Southwest  Level Estimated
10:04AM 33.8756 -84.3020 220° Southwest  Level Estimated